createdAt,value
2018-02-27T00:01:01.928Z,-10.10
2018-02-27T00:03:29.507Z,-10.20
2018-02-27T00:05:57.865Z,-10.20
2018-02-27T00:08:25.420Z,-10.30
2018-02-27T00:10:53.006Z,-10.30
2018-02-27T00:13:21.341Z,-10.40
2018-02-27T00:15:48.917Z,-10.40
2018-02-27T00:18:16.534Z,-10.50
2018-02-27T00:20:44.078Z,-10.40
2018-02-27T00:23:12.386Z,-10.30
2018-02-27T00:25:39.969Z,-10.40
2018-02-27T00:28:07.504Z,-10.40
2018-02-27T00:30:35.100Z,-10.50
2018-02-27T00:33:02.653Z,-10.50
2018-02-27T00:35:30.287Z,-10.40
2018-02-27T00:37:57.902Z,-10.50
2018-02-27T00:40:26.269Z,-10.50
2018-02-27T00:42:53.868Z,-10.50
2018-02-27T00:45:21.421Z,-10.50
2018-02-27T00:47:48.994Z,-10.60
2018-02-27T00:50:16.557Z,-10.60
2018-02-27T00:52:44.153Z,-10.60
2018-02-27T00:55:11.884Z,-10.60
2018-02-27T00:57:39.456Z,-10.60
2018-02-27T01:00:07.053Z,-10.60
2018-02-27T01:02:35.402Z,-10.60
2018-02-27T01:05:02.986Z,-10.60
2018-02-27T01:07:31.305Z,-10.70
2018-02-27T01:09:58.904Z,-10.80
2018-02-27T01:12:26.461Z,-10.70
2018-02-27T01:14:54.025Z,-10.80
2018-02-27T01:17:21.570Z,-10.70
2018-02-27T01:19:49.177Z,-10.70
2018-02-27T01:22:16.740Z,-10.70
2018-02-27T01:24:45.135Z,-10.80
2018-02-27T01:27:13.452Z,-10.80
2018-02-27T01:29:41.022Z,-10.80
2018-02-27T01:32:08.594Z,-10.90
2018-02-27T01:34:36.164Z,-10.80
2018-02-27T01:37:05.250Z,-10.80
2018-02-27T01:39:32.824Z,-10.80
2018-02-27T01:42:01.878Z,-10.90
2018-02-27T01:44:29.470Z,-10.90
2018-02-27T01:46:57.072Z,-10.80
2018-02-27T01:49:24.680Z,-10.90
2018-02-27T01:51:52.260Z,-10.90
2018-02-27T01:54:20.625Z,-10.90
2018-02-27T01:56:48.186Z,-10.90
2018-02-27T01:59:15.749Z,-10.90
2018-02-27T02:01:43.305Z,-11.00
2018-02-27T02:04:10.860Z,-10.90
2018-02-27T02:06:38.492Z,-10.90
2018-02-27T02:09:06.051Z,-11.00
2018-02-27T02:11:33.624Z,-11.00
2018-02-27T02:14:01.189Z,-11.00
2018-02-27T02:16:28.767Z,-11.10
2018-02-27T02:18:56.334Z,-11.10
2018-02-27T02:21:23.897Z,-11.00
2018-02-27T02:23:51.480Z,-11.00
2018-02-27T02:26:19.811Z,-11.00
2018-02-27T02:28:47.382Z,-11.00
2018-02-27T02:31:15.032Z,-11.00
2018-02-27T02:33:42.612Z,-11.00
2018-02-27T02:36:10.175Z,-11.10
2018-02-27T02:38:37.770Z,-11.10
2018-02-27T02:41:06.112Z,-11.20
2018-02-27T02:43:33.676Z,-11.20
2018-02-27T02:46:01.234Z,-11.30
2018-02-27T02:48:28.805Z,-11.30
2018-02-27T02:50:57.138Z,-11.30
2018-02-27T02:53:24.711Z,-11.40
2018-02-27T02:55:52.281Z,-11.20
2018-02-27T02:58:19.881Z,-11.20
2018-02-27T03:00:48.230Z,-11.30
2018-02-27T03:03:15.794Z,-11.30
2018-02-27T03:05:43.375Z,-11.40
2018-02-27T03:08:11.728Z,-11.30
2018-02-27T03:10:39.318Z,-11.30
2018-02-27T03:13:07.657Z,-11.30
2018-02-27T03:15:35.221Z,-11.40
2018-02-27T03:18:02.793Z,-11.20
2018-02-27T03:20:30.926Z,-11.20
2018-02-27T03:22:58.427Z,-11.20
2018-02-27T03:25:25.956Z,-11.20
2018-02-27T03:27:53.476Z,-11.30
2018-02-27T03:30:21.734Z,-11.10
2018-02-27T03:32:49.233Z,-11.20
2018-02-27T03:35:16.728Z,-11.10
2018-02-27T03:37:44.246Z,-11.10
2018-02-27T03:40:12.507Z,-11.10
2018-02-27T03:42:40.833Z,-11.10
2018-02-27T03:45:08.361Z,-11.10
2018-02-27T03:47:35.942Z,-11.10
2018-02-27T03:50:03.440Z,-11.20
2018-02-27T03:52:32.517Z,-11.20
2018-02-27T03:55:00.092Z,-11.20
2018-02-27T03:57:28.413Z,-11.00
2018-02-27T03:59:55.981Z,-11.10
2018-02-27T04:02:23.560Z,-11.10
2018-02-27T04:04:51.124Z,-10.90
2018-02-27T04:07:18.678Z,-11.00
2018-02-27T04:09:46.288Z,-11.10
2018-02-27T04:12:14.614Z,-11.30
2018-02-27T04:14:42.209Z,-11.30
2018-02-27T04:17:11.288Z,-11.10
2018-02-27T04:19:38.893Z,-11.10
2018-02-27T04:22:07.263Z,-11.10
2018-02-27T04:24:35.603Z,-11.10
2018-02-27T04:27:03.137Z,-11.20
2018-02-27T04:29:30.696Z,-11.10
2018-02-27T04:31:58.295Z,-11.20
2018-02-27T04:34:25.845Z,-11.10
2018-02-27T04:36:53.432Z,-11.10
2018-02-27T04:39:22.498Z,-11.30
2018-02-27T04:41:50.064Z,-11.30
2018-02-27T04:44:17.650Z,-11.30
2018-02-27T04:46:45.986Z,-11.30
2018-02-27T04:49:13.540Z,-11.30
2018-02-27T04:51:41.102Z,-11.30
2018-02-27T04:54:08.693Z,-11.40
2018-02-27T04:56:36.261Z,-11.40
2018-02-27T04:59:05.336Z,-11.40
2018-02-27T05:01:32.885Z,-11.40
2018-02-27T05:04:00.434Z,-11.40
2018-02-27T05:06:28.022Z,-11.40
2018-02-27T05:08:55.600Z,-11.40
2018-02-27T05:11:23.171Z,-11.40
2018-02-27T05:13:51.510Z,-11.50
2018-02-27T05:16:19.071Z,-11.60
2018-02-27T05:18:46.643Z,-11.50
2018-02-27T05:21:15.715Z,-11.50
2018-02-27T05:23:46.296Z,-11.50
2018-02-27T05:26:14.605Z,-11.60
2018-02-27T05:28:42.200Z,-11.60
2018-02-27T05:31:09.823Z,-11.50
2018-02-27T05:33:37.384Z,-11.50
2018-02-27T05:36:05.007Z,-11.60
2018-02-27T05:38:32.564Z,-11.60
2018-02-27T05:41:00.145Z,-11.70
2018-02-27T05:43:28.524Z,-11.80
2018-02-27T05:45:56.851Z,-11.80
2018-02-27T05:48:24.421Z,-11.80
2018-02-27T05:50:52.012Z,-11.70
2018-02-27T05:53:20.342Z,-11.90
2018-02-27T05:55:47.925Z,-11.90
2018-02-27T05:58:15.478Z,-11.80
2018-02-27T06:00:43.057Z,-11.80
2018-02-27T06:03:10.649Z,-11.90
2018-02-27T06:05:39.040Z,-11.90
2018-02-27T06:08:06.612Z,-11.90
2018-02-27T06:10:35.180Z,-11.80
2018-02-27T06:13:02.842Z,-11.90
2018-02-27T06:15:31.184Z,-11.80
2018-02-27T06:17:58.814Z,-11.90
2018-02-27T06:20:26.412Z,-11.80
2018-02-27T06:22:54.753Z,-11.80
2018-02-27T06:25:22.311Z,-11.80
2018-02-27T06:27:49.884Z,-11.80
2018-02-27T06:30:17.482Z,-11.70
2018-02-27T06:32:45.833Z,-11.60
2018-02-27T06:35:13.392Z,-11.70
2018-02-27T06:37:40.966Z,-11.50
2018-02-27T06:40:08.517Z,-11.40
2018-02-27T06:42:36.115Z,-11.30
2018-02-27T06:45:03.677Z,-11.20
2018-02-27T06:47:31.229Z,-11.10
2018-02-27T06:49:59.590Z,-10.90
2018-02-27T06:52:27.965Z,-10.90
2018-02-27T06:54:55.561Z,-10.90
2018-02-27T06:57:23.921Z,-10.70
2018-02-27T06:59:52.255Z,-10.70
2018-02-27T07:02:19.816Z,-10.70
2018-02-27T07:04:47.375Z,-10.70
2018-02-27T07:07:14.996Z,-10.50
2018-02-27T07:09:42.686Z,-10.40
2018-02-27T07:12:10.255Z,-10.30
2018-02-27T07:14:37.857Z,-10.20
2018-02-27T07:17:06.292Z,-9.80
2018-02-27T07:19:33.961Z,-9.80
2018-02-27T07:22:01.541Z,-9.70
2018-02-27T07:24:29.105Z,-9.70
2018-02-27T07:26:56.693Z,-9.40
2018-02-27T07:29:25.034Z,-9.30
2018-02-27T07:31:52.606Z,-9.30
2018-02-27T07:34:20.186Z,-9.00
2018-02-27T07:36:48.506Z,-9.20
2018-02-27T07:39:16.142Z,-9.30
2018-02-27T07:41:43.831Z,-9.20
2018-02-27T07:44:11.424Z,-9.20
2018-02-27T07:46:39.022Z,-9.10
2018-02-27T07:49:07.363Z,-9.20
2018-02-27T07:51:34.914Z,-9.20
2018-02-27T07:54:02.497Z,-9.10
2018-02-27T07:56:30.050Z,-9.00
2018-02-27T07:58:58.394Z,-9.10
2018-02-27T08:01:25.968Z,-9.10
2018-02-27T08:03:53.562Z,-9.00
2018-02-27T08:06:21.900Z,-9.00
2018-02-27T08:08:49.477Z,-9.00
2018-02-27T08:11:17.033Z,-8.80
2018-02-27T08:13:44.598Z,-8.70
2018-02-27T08:16:12.205Z,-8.60
2018-02-27T08:18:39.761Z,-8.60
2018-02-27T08:21:08.081Z,-8.30
2018-02-27T08:23:35.646Z,-8.30
2018-02-27T08:26:03.189Z,-8.40
2018-02-27T08:28:30.773Z,-8.40
2018-02-27T08:30:58.339Z,-8.30
2018-02-27T08:33:25.920Z,-8.10
2018-02-27T08:35:54.234Z,-8.40
2018-02-27T08:38:21.804Z,-8.40
2018-02-27T08:40:49.368Z,-8.30
2018-02-27T08:43:17.004Z,-7.90
2018-02-27T08:45:44.563Z,-8.10
2018-02-27T08:48:12.131Z,-8.00
2018-02-27T08:50:39.691Z,-7.70
2018-02-27T08:53:07.370Z,-7.70
2018-02-27T08:55:35.806Z,-7.70
2018-02-27T08:58:04.129Z,-7.40
2018-02-27T09:00:31.700Z,-7.40
2018-02-27T09:02:59.276Z,-6.90
2018-02-27T09:05:26.832Z,-7.00
2018-02-27T09:07:54.387Z,-7.10
2018-02-27T09:10:21.964Z,-6.80
2018-02-27T09:12:49.558Z,-6.80
2018-02-27T09:15:17.885Z,-6.40
2018-02-27T09:17:45.463Z,-6.50
2018-02-27T09:20:13.027Z,-6.60
2018-02-27T09:22:40.610Z,-6.30
2018-02-27T09:25:08.982Z,-5.90
2018-02-27T09:27:37.324Z,-5.80
2018-02-27T09:30:04.869Z,-5.90
2018-02-27T09:32:32.413Z,-5.90
2018-02-27T09:34:59.989Z,-5.30
2018-02-27T09:37:27.497Z,-5.00
2018-02-27T09:39:55.023Z,-5.40
2018-02-27T09:42:22.569Z,-5.00
2018-02-27T09:44:50.111Z,-4.50
2018-02-27T09:47:17.659Z,-4.20
2018-02-27T09:49:45.171Z,-4.40
2018-02-27T09:52:12.721Z,-5.30
2018-02-27T09:54:40.231Z,-5.40
2018-02-27T09:57:08.535Z,-5.80
2018-02-27T09:59:36.060Z,-5.80
2018-02-27T10:02:04.366Z,-5.40
2018-02-27T10:04:31.880Z,-5.50
2018-02-27T10:06:59.437Z,-5.70
2018-02-27T10:09:26.971Z,-5.40
2018-02-27T10:11:54.489Z,-5.30
2018-02-27T10:14:22.799Z,-5.50
2018-02-27T10:16:50.338Z,-5.60
2018-02-27T10:19:17.916Z,-5.60
2018-02-27T10:21:46.168Z,-6.20
2018-02-27T10:24:13.731Z,-6.20
2018-02-27T10:26:41.341Z,-6.70
2018-02-27T10:29:08.883Z,-6.40
2018-02-27T10:31:36.439Z,-6.50
2018-02-27T10:34:04.001Z,-6.50
2018-02-27T10:36:31.518Z,-6.40
2018-02-27T10:38:59.077Z,-6.30
2018-02-27T10:41:27.380Z,-6.20
2018-02-27T10:43:54.923Z,-6.20
2018-02-27T10:46:22.454Z,-6.30
2018-02-27T10:48:50.780Z,-6.40
2018-02-27T10:51:18.317Z,-6.50
2018-02-27T10:53:45.850Z,-6.00
2018-02-27T10:56:13.407Z,-6.10
2018-02-27T10:58:41.702Z,-6.10
2018-02-27T11:01:15.841Z,-6.20
2018-02-27T11:03:43.347Z,-6.20
2018-02-27T11:06:10.882Z,-6.00
2018-02-27T11:08:38.392Z,-6.00
2018-02-27T11:11:06.698Z,-6.00
2018-02-27T11:13:34.227Z,-6.00
2018-02-27T11:16:02.534Z,-5.90
2018-02-27T11:18:30.069Z,-5.90
2018-02-27T11:20:58.372Z,-5.80
2018-02-27T11:23:25.949Z,-5.80
2018-02-27T11:25:53.520Z,-5.90
2018-02-27T11:28:21.050Z,-6.20
2018-02-27T11:30:48.592Z,-5.70
2018-02-27T11:33:16.131Z,-5.60
2018-02-27T11:35:43.664Z,-5.80
2018-02-27T11:38:11.229Z,-5.80
2018-02-27T11:40:38.843Z,-5.70
2018-02-27T11:43:06.415Z,-5.50
2018-02-27T11:45:33.980Z,-5.50
2018-02-27T11:48:01.493Z,-5.70
2018-02-27T11:50:29.811Z,-5.80
2018-02-27T11:52:57.342Z,-5.90
2018-02-27T11:55:25.656Z,-6.20
2018-02-27T11:57:53.206Z,-6.20
2018-02-27T12:00:20.871Z,-6.10
2018-02-27T12:02:48.406Z,-5.90
2018-02-27T12:05:15.941Z,-5.80
2018-02-27T12:07:43.468Z,-5.20
2018-02-27T12:10:10.985Z,-5.40
2018-02-27T12:12:38.548Z,-5.30
2018-02-27T12:15:06.857Z,-4.90
2018-02-27T12:17:34.417Z,-5.00
2018-02-27T12:20:01.936Z,-5.30
2018-02-27T12:22:30.249Z,-5.40
2018-02-27T12:24:57.800Z,-5.50
2018-02-27T12:27:25.338Z,-5.60
2018-02-27T12:29:52.877Z,-5.50
2018-02-27T12:32:20.446Z,-5.30
2018-02-27T12:34:48.731Z,-5.30
2018-02-27T12:37:17.134Z,-5.40
2018-02-27T12:39:44.695Z,-5.40
2018-02-27T12:42:12.260Z,-5.60
2018-02-27T12:44:39.810Z,-5.70
2018-02-27T12:47:07.362Z,-6.40
2018-02-27T12:49:34.935Z,-6.50
2018-02-27T12:52:02.468Z,-6.10
2018-02-27T12:54:30.782Z,-4.20
2018-02-27T12:56:58.336Z,-4.20
2018-02-27T12:59:25.903Z,-5.00
2018-02-27T13:01:53.434Z,-4.50
2018-02-27T13:04:20.965Z,-4.70
2018-02-27T13:06:49.261Z,-4.80
2018-02-27T13:09:17.585Z,-4.40
2018-02-27T13:11:45.093Z,-4.40
2018-02-27T13:14:13.398Z,-4.90
2018-02-27T13:16:40.946Z,-4.90
2018-02-27T13:19:09.292Z,-4.50
2018-02-27T13:21:36.828Z,-3.80
2018-02-27T13:24:04.361Z,-3.30
2018-02-27T13:26:31.903Z,-3.40
2018-02-27T13:28:59.466Z,-3.10
2018-02-27T13:31:27.025Z,-2.90
2018-02-27T13:33:54.567Z,-3.50
2018-02-27T13:36:22.873Z,-2.30
2018-02-27T13:38:50.447Z,-2.30
2018-02-27T13:41:17.975Z,-1.70
2018-02-27T13:43:45.497Z,-2.10
2018-02-27T13:46:13.056Z,-2.00
2018-02-27T13:48:45.760Z,-2.40
2018-02-27T13:51:08.182Z,-2.90
2018-02-27T13:53:35.711Z,-3.50
2018-02-27T13:56:03.277Z,-3.90
2018-02-27T13:58:30.783Z,-3.90
2018-02-27T14:00:59.092Z,-3.30
2018-02-27T14:03:26.659Z,-3.30
2018-02-27T14:05:54.199Z,-2.70
2018-02-27T14:08:21.724Z,-2.50
2018-02-27T14:10:49.261Z,-2.30
2018-02-27T14:13:16.807Z,-3.20
2018-02-27T14:15:44.337Z,-2.60
2018-02-27T14:18:11.912Z,-2.40
2018-02-27T14:20:39.467Z,-2.20
2018-02-27T14:23:06.971Z,-1.80
2018-02-27T14:25:34.500Z,-1.80
2018-02-27T14:28:02.027Z,-1.60
2018-02-27T14:30:29.582Z,-1.90
2018-02-27T14:32:57.174Z,-2.00
2018-02-27T14:35:24.718Z,-2.10
2018-02-27T14:37:52.240Z,-2.40
2018-02-27T14:40:19.796Z,-2.10
2018-02-27T14:42:47.316Z,-2.40
2018-02-27T14:45:14.896Z,-1.70
2018-02-27T14:47:42.492Z,-1.90
2018-02-27T14:50:10.806Z,-1.90
2018-02-27T14:52:38.350Z,-1.90
2018-02-27T14:55:05.881Z,-1.80
2018-02-27T14:57:34.192Z,-2.40
2018-02-27T15:00:01.737Z,-2.50
2018-02-27T15:02:29.274Z,-2.70
2018-02-27T15:04:57.600Z,-2.50
2018-02-27T15:07:25.133Z,-2.50
2018-02-27T15:09:52.672Z,-2.40
2018-02-27T15:12:20.284Z,-2.30
2018-02-27T15:14:47.817Z,-2.40
2018-02-27T15:17:15.345Z,-2.60
2018-02-27T15:19:43.677Z,-2.50
2018-02-27T15:22:11.219Z,-2.50
2018-02-27T15:24:38.766Z,-2.60
2018-02-27T15:27:06.313Z,-3.10
2018-02-27T15:29:34.652Z,-3.00
2018-02-27T15:32:02.228Z,-3.00
2018-02-27T15:34:29.776Z,-3.10
2018-02-27T15:36:57.324Z,-3.10
2018-02-27T15:39:24.849Z,-3.30
2018-02-27T15:41:52.383Z,-3.50
2018-02-27T15:44:20.697Z,-3.60
2018-02-27T15:46:48.223Z,-3.60
2018-02-27T15:49:16.577Z,-3.70
2018-02-27T15:51:44.115Z,-3.70
2018-02-27T15:54:11.621Z,-3.80
2018-02-27T15:56:40.014Z,-4.40
2018-02-27T15:59:07.511Z,-4.40
2018-02-27T16:01:35.072Z,-4.50
2018-02-27T16:04:02.618Z,-4.60
2018-02-27T16:06:30.166Z,-4.80
2018-02-27T16:08:57.696Z,-4.90
2018-02-27T16:11:26.025Z,-5.50
2018-02-27T16:13:53.553Z,-5.50
2018-02-27T16:16:21.100Z,-5.60
2018-02-27T16:18:49.385Z,-6.00
2018-02-27T16:21:17.787Z,-6.00
2018-02-27T16:23:45.320Z,-6.30
2018-02-27T16:26:13.643Z,-6.50
2018-02-27T16:28:41.233Z,-6.60
2018-02-27T16:31:08.794Z,-6.60
2018-02-27T16:33:36.389Z,-6.70
2018-02-27T16:36:03.946Z,-6.80
2018-02-27T16:38:31.531Z,-6.80
2018-02-27T16:40:59.075Z,-6.90
2018-02-27T16:43:26.632Z,-7.00
2018-02-27T16:45:54.183Z,-7.00
2018-02-27T16:48:21.741Z,-7.00
2018-02-27T16:50:50.043Z,-7.10
2018-02-27T16:53:17.590Z,-7.10
2018-02-27T16:55:45.139Z,-7.30
2018-02-27T16:58:12.707Z,-7.30
2018-02-27T17:00:40.285Z,-7.40
2018-02-27T17:03:07.881Z,-7.40
2018-02-27T17:05:35.450Z,-7.50
2018-02-27T17:08:03.765Z,-7.60
2018-02-27T17:10:31.501Z,-7.60
2018-02-27T17:12:59.871Z,-7.70
2018-02-27T17:15:27.721Z,-7.70
2018-02-27T17:17:55.305Z,-7.70
2018-02-27T17:20:22.902Z,-7.70
2018-02-27T17:22:50.443Z,-7.90
2018-02-27T17:25:18.777Z,-7.90
2018-02-27T17:27:46.354Z,-7.90
2018-02-27T17:30:13.942Z,-7.90
2018-02-27T17:32:42.464Z,-8.00
2018-02-27T17:35:10.036Z,-8.10
2018-02-27T17:37:37.622Z,-8.00
2018-02-27T17:40:05.959Z,-8.10
2018-02-27T17:42:33.535Z,-8.10
2018-02-27T17:45:01.111Z,-8.10
2018-02-27T17:47:28.848Z,-8.20
2018-02-27T17:49:56.450Z,-8.30
2018-02-27T17:52:24.017Z,-8.30
2018-02-27T17:54:52.351Z,-8.40
2018-02-27T17:57:19.944Z,-8.40
2018-02-27T17:59:47.526Z,-8.30
2018-02-27T18:02:15.891Z,-8.40
2018-02-27T18:04:43.466Z,-8.40
2018-02-27T18:07:11.797Z,-8.40
2018-02-27T18:09:39.397Z,-8.40
2018-02-27T18:12:07.726Z,-8.60
2018-02-27T18:14:35.324Z,-8.50
2018-02-27T18:17:02.877Z,-8.60
2018-02-27T18:19:30.479Z,-8.60
2018-02-27T18:21:58.055Z,-8.60
2018-02-27T18:24:25.651Z,-8.70
2018-02-27T18:26:53.265Z,-8.70
2018-02-27T18:29:20.825Z,-8.70
2018-02-27T18:31:48.440Z,-8.70
2018-02-27T18:34:16.051Z,-8.80
2018-02-27T18:36:43.732Z,-8.80
2018-02-27T18:39:11.349Z,-8.90
2018-02-27T18:41:39.692Z,-9.00
2018-02-27T18:44:08.338Z,-9.00
2018-02-27T18:46:35.923Z,-8.90
2018-02-27T18:49:03.542Z,-8.90
2018-02-27T18:51:31.123Z,-8.90
2018-02-27T18:53:59.216Z,-9.00
2018-02-27T18:56:27.125Z,-9.00
2018-02-27T18:58:55.513Z,-9.00
2018-02-27T19:01:23.114Z,-9.10
2018-02-27T19:03:50.809Z,-9.10
2018-02-27T19:06:18.406Z,-9.10
2018-02-27T19:08:46.776Z,-9.20
2018-02-27T19:11:15.113Z,-9.20
2018-02-27T19:13:42.690Z,-9.30
2018-02-27T19:16:10.301Z,-9.20
2018-02-27T19:18:38.624Z,-9.20
2018-02-27T19:21:06.242Z,-9.20
2018-02-27T19:23:33.830Z,-9.30
2018-02-27T19:26:01.490Z,-9.40
2018-02-27T19:28:29.064Z,-9.40
2018-02-27T19:30:56.651Z,-9.40
2018-02-27T19:33:24.365Z,-9.40
2018-02-27T19:35:51.964Z,-9.40
2018-02-27T19:38:19.558Z,-9.50
2018-02-27T19:40:47.919Z,-9.60
2018-02-27T19:43:17.168Z,-9.60
2018-02-27T19:45:44.752Z,-9.70
2018-02-27T19:48:12.617Z,-9.70
2018-02-27T19:50:40.185Z,-9.80
2018-02-27T19:53:07.802Z,-9.80
2018-02-27T19:55:35.409Z,-9.80
2018-02-27T19:58:03.047Z,-9.80
2018-02-27T20:00:30.634Z,-9.80
2018-02-27T20:02:58.267Z,-9.80
2018-02-27T20:05:25.839Z,-9.80
2018-02-27T20:07:53.457Z,-9.70
2018-02-27T20:10:21.952Z,-9.80
2018-02-27T20:12:49.548Z,-9.80
2018-02-27T20:15:17.136Z,-9.80
2018-02-27T20:17:51.106Z,-9.90
2018-02-27T20:20:18.812Z,-10.00
2018-02-27T20:22:52.872Z,-9.90
2018-02-27T20:25:20.429Z,-9.90
2018-02-27T20:27:48.054Z,-9.90
2018-02-27T20:30:15.693Z,-9.90
2018-02-27T20:32:43.295Z,-10.00
2018-02-27T20:35:10.889Z,-10.00
2018-02-27T20:37:38.471Z,-9.90
2018-02-27T20:40:06.114Z,-10.00
2018-02-27T20:42:33.678Z,-9.90
2018-02-27T20:45:01.274Z,-9.90
2018-02-27T20:47:29.636Z,-10.00
2018-02-27T20:49:57.249Z,-10.10
2018-02-27T20:52:24.836Z,-10.10
2018-02-27T20:54:52.464Z,-10.00
2018-02-27T20:57:20.110Z,-10.00
2018-02-27T20:59:47.773Z,-10.00
2018-02-27T21:02:16.183Z,-10.00
2018-02-27T21:04:43.765Z,-10.00
2018-02-27T21:07:11.415Z,-9.90
2018-02-27T21:09:39.012Z,-9.90
2018-02-27T21:12:06.614Z,-9.80
2018-02-27T21:14:34.171Z,-9.90
2018-02-27T21:17:01.863Z,-10.10
2018-02-27T21:19:29.420Z,-10.10
2018-02-27T21:21:57.012Z,-10.20
2018-02-27T21:24:24.641Z,-10.20
2018-02-27T21:26:52.221Z,-10.20
2018-02-27T21:29:19.828Z,-10.20
2018-02-27T21:31:48.152Z,-10.30
2018-02-27T21:34:15.754Z,-10.30
2018-02-27T21:36:44.096Z,-10.40
2018-02-27T21:39:11.689Z,-10.40
2018-02-27T21:41:40.048Z,-10.40
2018-02-27T21:44:07.646Z,-10.50
2018-02-27T21:46:36.018Z,-10.40
2018-02-27T21:49:04.386Z,-10.30
2018-02-27T21:51:32.716Z,-10.30
2018-02-27T21:54:00.329Z,-10.30
2018-02-27T21:56:28.746Z,-10.30
2018-02-27T21:58:56.338Z,-10.40
2018-02-27T22:01:23.928Z,-10.40
2018-02-27T22:03:52.261Z,-10.30
2018-02-27T22:06:19.857Z,-10.30
2018-02-27T22:08:47.434Z,-10.30
2018-02-27T22:11:15.792Z,-10.20
2018-02-27T22:13:43.369Z,-10.20
2018-02-27T22:16:11.727Z,-10.40
2018-02-27T22:18:40.106Z,-10.40
2018-02-27T22:21:07.658Z,-10.40
2018-02-27T22:23:35.253Z,-10.40
2018-02-27T22:26:03.674Z,-10.60
2018-02-27T22:28:31.272Z,-10.60
2018-02-27T22:30:59.610Z,-10.60
2018-02-27T22:33:27.198Z,-10.60
2018-02-27T22:35:54.776Z,-10.50
2018-02-27T22:38:22.465Z,-10.60
2018-02-27T22:40:50.044Z,-10.60
2018-02-27T22:43:17.614Z,-10.60
2018-02-27T22:45:45.176Z,-10.50
2018-02-27T22:48:12.757Z,-10.60
2018-02-27T22:50:40.335Z,-10.60
2018-02-27T22:53:07.924Z,-10.60
2018-02-27T22:55:36.438Z,-10.80
2018-02-27T22:58:04.080Z,-10.80
2018-02-27T23:00:40.505Z,-10.80
2018-02-27T23:03:08.089Z,-10.80
2018-02-27T23:05:36.431Z,-10.70
2018-02-27T23:08:04.009Z,-10.70
2018-02-27T23:10:32.345Z,-10.70
2018-02-27T23:12:59.993Z,-10.70
2018-02-27T23:15:27.558Z,-10.70
2018-02-27T23:17:55.133Z,-10.60
2018-02-27T23:20:22.694Z,-10.60
2018-02-27T23:22:50.290Z,-10.80
2018-02-27T23:25:32.624Z,-10.80
2018-02-27T23:28:03.632Z,-10.90
2018-02-27T23:30:31.530Z,-10.90
2018-02-27T23:33:01.892Z,-11.10
2018-02-27T23:35:29.449Z,-11.20
2018-02-27T23:37:57.218Z,-11.20
2018-02-27T23:40:24.859Z,-11.30
2018-02-27T23:42:52.553Z,-11.30
2018-02-27T23:45:20.137Z,-11.30
2018-02-27T23:47:48.477Z,-11.40
2018-02-27T23:50:16.088Z,-11.50
2018-02-27T23:52:43.707Z,-11.50
2018-02-27T23:55:11.286Z,-11.50
2018-02-27T23:57:38.836Z,-11.50
